createdAt,value
2023-07-18T00:04:20.268Z,94091.27
2023-07-18T00:09:27.765Z,94094.48
2023-07-18T00:14:35.163Z,94088.72
2023-07-18T00:19:42.622Z,94076.69
2023-07-18T00:24:49.699Z,94060.42
2023-07-18T00:29:59.796Z,94067.20
2023-07-18T00:35:09.235Z,94054.30
2023-07-18T00:40:18.703Z,94049.31
2023-07-18T00:45:25.758Z,94049.33
2023-07-18T00:50:32.653Z,94049.23
2023-07-18T00:55:41.075Z,94041.38
2023-07-18T01:00:48.183Z,94031.73
2023-07-18T01:05:56.833Z,94037.97
2023-07-18T01:11:04.084Z,94035.46
2023-07-18T01:16:12.089Z,94026.88
2023-07-18T01:21:24.595Z,94029.08
2023-07-18T01:26:32.266Z,94034.14
2023-07-18T01:31:39.372Z,94040.72
2023-07-18T01:36:46.818Z,94035.02
2023-07-18T01:41:53.831Z,94035.56
2023-07-18T01:47:00.835Z,94038.25
2023-07-18T01:52:09.235Z,94031.36
2023-07-18T01:57:15.962Z,94036.37
2023-07-18T02:02:23.321Z,94045.70
2023-07-18T02:07:30.683Z,94057.67
2023-07-18T02:12:38.194Z,94058.55
2023-07-18T02:17:46.236Z,94050.39
2023-07-18T02:22:53.769Z,94045.19
2023-07-18T02:28:00.577Z,94046.59
2023-07-18T02:33:08.681Z,94045.01
2023-07-18T02:38:15.831Z,94048.56
2023-07-18T02:43:23.066Z,94036.70
2023-07-18T02:48:30.058Z,94038.55
2023-07-18T02:53:37.083Z,94035.00
2023-07-18T02:58:44.037Z,94035.23
2023-07-18T03:03:51.264Z,94042.52
2023-07-18T03:08:59.034Z,94045.59
2023-07-18T03:14:07.826Z,94039.58
2023-07-18T03:19:16.610Z,94046.30
2023-07-18T03:24:23.287Z,94044.95
2023-07-18T03:29:30.335Z,94052.12
2023-07-18T03:34:37.165Z,94060.56
2023-07-18T03:39:44.283Z,94064.13
2023-07-18T03:44:51.478Z,94054.35
2023-07-18T03:49:58.342Z,94061.14
2023-07-18T03:55:06.657Z,94063.52
2023-07-18T04:00:19.428Z,94058.97
2023-07-18T04:05:26.362Z,94064.95
2023-07-18T04:10:34.261Z,94066.44
2023-07-18T04:15:41.086Z,94072.05
2023-07-18T04:20:48.040Z,94069.52
2023-07-18T04:26:04.303Z,94074.22
2023-07-18T04:31:11.194Z,94070.80
2023-07-18T04:36:18.030Z,94077.69
2023-07-18T04:41:30.752Z,94085.36
2023-07-18T04:46:35.008Z,94087.49
2023-07-18T04:51:42.153Z,94088.61
2023-07-18T04:56:49.001Z,94094.09
2023-07-18T05:01:56.954Z,94092.23
2023-07-18T05:07:04.335Z,94094.76
2023-07-18T05:12:11.753Z,94096.36
2023-07-18T05:17:18.765Z,94090.60
2023-07-18T05:22:25.949Z,94099.59
2023-07-18T05:27:33.196Z,94101.13
2023-07-18T05:32:40.447Z,94098.33
2023-07-18T05:37:48.159Z,94092.43
2023-07-18T05:42:55.815Z,93951.97
2023-07-18T05:48:02.886Z,94098.20
2023-07-18T05:53:09.890Z,94097.70
2023-07-18T05:58:17.325Z,94102.03
2023-07-18T06:03:25.317Z,94097.88
2023-07-18T06:08:32.910Z,94093.14
2023-07-18T06:13:40.667Z,94099.95
2023-07-18T06:18:47.929Z,94102.50
2023-07-18T06:24:01.673Z,94108.02
2023-07-18T06:29:04.697Z,94107.98
2023-07-18T06:34:11.766Z,94116.45
2023-07-18T06:39:19.793Z,94114.97
2023-07-18T06:44:26.588Z,94117.72
2023-07-18T06:49:33.625Z,94113.69
2023-07-18T06:54:40.740Z,94112.02
2023-07-18T06:59:47.802Z,94133.08
2023-07-18T07:04:54.809Z,94112.11
2023-07-18T07:10:01.832Z,94113.46
2023-07-18T07:15:11.794Z,94110.38
2023-07-18T07:20:20.492Z,94108.66
2023-07-18T07:25:33.155Z,94111.16
2023-07-18T07:30:39.926Z,94106.78
2023-07-18T07:35:47.355Z,94107.30
2023-07-18T07:40:54.720Z,94110.41
2023-07-18T07:46:03.231Z,94109.66
2023-07-18T07:51:10.682Z,94109.44
2023-07-18T07:56:18.035Z,94108.84
2023-07-18T08:01:24.998Z,94112.94
2023-07-18T08:06:32.131Z,94111.38
2023-07-18T08:11:39.161Z,94107.53
2023-07-18T08:16:46.644Z,94120.52
2023-07-18T08:21:53.947Z,94118.56
2023-07-18T08:27:01.508Z,94111.74
2023-07-18T08:32:09.622Z,94108.31
2023-07-18T08:37:17.154Z,94107.00
2023-07-18T08:42:29.767Z,94107.64
2023-07-18T08:47:37.160Z,94106.87
2023-07-18T08:52:44.925Z,94103.72
2023-07-18T08:57:52.287Z,94106.03
2023-07-18T09:02:59.347Z,94099.83
2023-07-18T09:08:08.700Z,94102.06
2023-07-18T09:13:15.582Z,94096.91
2023-07-18T09:18:22.545Z,94093.70
2023-07-18T09:23:29.660Z,94095.86
2023-07-18T09:28:36.820Z,94094.07
2023-07-18T09:33:44.130Z,94095.30
2023-07-18T09:38:53.373Z,94083.60
2023-07-18T09:44:27.619Z,94082.50
2023-07-18T09:49:14.801Z,94078.20
2023-07-18T09:54:22.674Z,94080.59
2023-07-18T09:59:32.485Z,94071.81
2023-07-18T10:04:40.761Z,94073.55
2023-07-18T10:09:49.156Z,94066.34
2023-07-18T10:15:01.952Z,94056.27
2023-07-18T10:20:21.957Z,94051.88
2023-07-18T10:25:34.046Z,94053.23
2023-07-18T10:30:43.882Z,94036.83
2023-07-18T10:35:52.384Z,94038.66
2023-07-18T10:40:59.249Z,94039.77
2023-07-18T10:46:08.584Z,94037.33
2023-07-18T10:51:15.669Z,94028.75
2023-07-18T10:56:25.151Z,94023.82
2023-07-18T11:01:32.150Z,94015.30
2023-07-18T11:06:39.256Z,94003.50
2023-07-18T11:11:46.038Z,93992.44
2023-07-18T11:16:53.618Z,93987.84
2023-07-18T11:22:00.599Z,93991.61
2023-07-18T11:27:30.242Z,93988.44
2023-07-18T11:32:43.065Z,93984.14
2023-07-18T11:37:54.761Z,93976.30
2023-07-18T11:43:02.073Z,93960.95
2023-07-18T11:48:10.814Z,93955.47
2023-07-18T11:53:22.183Z,93950.83
2023-07-18T11:58:29.613Z,93946.45
2023-07-18T12:03:37.869Z,93933.84
2023-07-18T12:08:44.994Z,93935.73
2023-07-18T12:13:52.136Z,93936.64
2023-07-18T12:18:59.171Z,93934.95
2023-07-18T12:24:06.387Z,93926.27
2023-07-18T12:29:15.541Z,93926.54
2023-07-18T12:34:23.352Z,93926.14
2023-07-18T12:39:30.226Z,93922.51
2023-07-18T12:44:50.680Z,93908.08
2023-07-18T12:49:57.712Z,93897.45
2023-07-18T12:55:05.367Z,93897.43
2023-07-18T13:00:13.794Z,93898.59
2023-07-18T13:05:22.145Z,93886.46
2023-07-18T13:10:29.019Z,93873.72
2023-07-18T13:15:36.296Z,93876.34
2023-07-18T13:20:43.702Z,93860.01
2023-07-18T13:25:51.025Z,93862.73
2023-07-18T13:30:59.099Z,93853.13
2023-07-18T13:36:07.057Z,93847.61
2023-07-18T13:41:15.996Z,93838.20
2023-07-18T13:46:23.482Z,93838.62
2023-07-18T13:51:32.556Z,93848.92
2023-07-18T13:56:39.577Z,93838.92
2023-07-18T14:01:46.788Z,93825.63
2023-07-18T14:06:53.965Z,93816.06
2023-07-18T14:12:01.669Z,93806.56
2023-07-18T14:17:08.580Z,93785.06
2023-07-18T14:22:17.186Z,93769.66
2023-07-18T14:27:24.108Z,93779.67
2023-07-18T14:32:32.587Z,93795.14
2023-07-18T14:37:40.212Z,93786.68
2023-07-18T14:42:48.789Z,93773.72
2023-07-18T14:47:56.972Z,93762.70
2023-07-18T14:53:04.137Z,93758.07
2023-07-18T14:58:11.541Z,93748.46
2023-07-18T15:03:18.947Z,93772.63
2023-07-18T15:08:26.317Z,93753.88
2023-07-18T15:13:34.609Z,93749.61
2023-07-18T15:18:41.564Z,93730.70
2023-07-18T15:23:48.609Z,93741.60
2023-07-18T15:28:55.707Z,93786.12
2023-07-18T15:34:03.189Z,93813.81
2023-07-18T15:39:10.603Z,93842.73
2023-07-18T15:44:17.872Z,93851.14
2023-07-18T15:49:25.035Z,93875.27
2023-07-18T16:00:19.593Z,94035.88
2023-07-18T16:05:26.494Z,93854.38
2023-07-18T16:10:33.365Z,93888.80
2023-07-18T16:15:40.329Z,93885.14
2023-07-18T16:20:47.117Z,93885.47
2023-07-18T16:25:53.916Z,93883.03
2023-07-18T16:31:00.743Z,93931.48
2023-07-18T16:36:08.042Z,93928.15
2023-07-18T16:41:14.978Z,93863.97
2023-07-18T16:46:23.016Z,93842.09
2023-07-18T16:51:30.213Z,93800.42
2023-07-18T16:56:37.087Z,93794.94
2023-07-18T17:01:44.594Z,93828.15
2023-07-18T17:06:52.603Z,93892.22
2023-07-18T17:11:59.410Z,93887.48
2023-07-18T17:17:06.465Z,93869.48
2023-07-18T17:22:13.773Z,93851.54
2023-07-18T17:27:21.323Z,93872.08
2023-07-18T17:32:28.562Z,93840.20
2023-07-18T17:37:35.460Z,93786.03
2023-07-18T17:42:47.012Z,93823.27
2023-07-18T17:47:54.876Z,93810.41
2023-07-18T17:53:04.006Z,93788.60
2023-07-18T17:58:10.765Z,93759.01
2023-07-18T18:03:17.757Z,93787.67
2023-07-18T18:08:24.558Z,93744.11
2023-07-18T18:13:31.414Z,93747.80
2023-07-18T18:18:38.418Z,93742.91
2023-07-18T18:23:45.295Z,93752.73
2023-07-18T18:28:53.381Z,93753.91
2023-07-18T18:34:04.134Z,93730.08
2023-07-18T18:39:11.470Z,93710.88
2023-07-18T18:44:18.300Z,93702.83
2023-07-18T18:49:27.598Z,93683.09
2023-07-18T18:54:33.642Z,93678.69
2023-07-18T18:59:41.151Z,93695.87
2023-07-18T19:04:53.260Z,93696.70
2023-07-18T19:10:00.177Z,93701.07
2023-07-18T19:15:07.917Z,93699.81
2023-07-18T19:20:15.893Z,93710.44
2023-07-18T19:25:24.768Z,93741.92
2023-07-18T19:30:31.724Z,93742.00
2023-07-18T19:35:38.936Z,93725.17
2023-07-18T19:40:45.845Z,93727.60
2023-07-18T19:45:53.264Z,93710.90
2023-07-18T19:51:00.291Z,93702.98
2023-07-18T19:56:08.141Z,93677.94
2023-07-18T20:01:15.894Z,93689.80
2023-07-18T20:06:22.986Z,93683.31
2023-07-18T20:11:29.990Z,93661.52
2023-07-18T20:16:37.433Z,93662.18
2023-07-18T20:21:44.286Z,93658.11
2023-07-18T20:26:51.735Z,93652.30
2023-07-18T20:31:58.748Z,93681.87
2023-07-18T20:37:07.728Z,93679.83
2023-07-18T20:42:14.927Z,93678.87
2023-07-18T20:47:22.231Z,93689.72
2023-07-18T20:52:29.248Z,93666.37
2023-07-18T20:57:36.385Z,93603.33
2023-07-18T21:02:43.881Z,93664.06
2023-07-18T21:07:50.927Z,93649.24
2023-07-18T21:12:57.860Z,93646.04
2023-07-18T21:18:04.794Z,93635.17
2023-07-18T21:23:11.837Z,93618.16
2023-07-18T21:28:19.193Z,93597.54
2023-07-18T21:33:26.166Z,93622.58
2023-07-18T21:38:33.708Z,93605.86
2023-07-18T21:43:40.690Z,93507.52
2023-07-18T21:48:47.707Z,93533.69
2023-07-18T21:53:54.599Z,93568.42
2023-07-18T21:59:02.372Z,93559.81
2023-07-18T22:04:09.632Z,93555.92
2023-07-18T22:09:16.569Z,93539.42
2023-07-18T22:14:24.719Z,93538.11
2023-07-18T22:19:31.957Z,93549.09
2023-07-18T22:24:38.896Z,93530.20
2023-07-18T22:29:46.441Z,93531.69
2023-07-18T22:34:53.803Z,93514.54
2023-07-18T22:40:00.781Z,93528.44
2023-07-18T22:45:08.688Z,93552.36
2023-07-18T22:50:15.609Z,93601.70
2023-07-18T22:55:22.416Z,93582.38
2023-07-18T23:00:29.326Z,93507.74
2023-07-18T23:05:36.133Z,93536.56
2023-07-18T23:10:42.997Z,93532.67
2023-07-18T23:15:49.736Z,93530.75
2023-07-18T23:20:56.554Z,93531.08
2023-07-18T23:26:03.398Z,93532.03
2023-07-18T23:31:10.408Z,93539.42
2023-07-18T23:36:17.182Z,93609.69
2023-07-18T23:41:24.436Z,93627.70
2023-07-18T23:46:33.074Z,93594.46
2023-07-18T23:51:40.042Z,93608.11
2023-07-18T23:56:47.022Z,93585.94
